sensor_id;sensor_type;location;lat;lon;timestamp;pressure;altitude;pressure_sealevel;temperature;humidity
8334;BME280;4204;43.004;23.052;2023-05-20T00:01:15;94092.88;;;15.65;100.00
8334;BME280;4204;43.004;23.052;2023-05-20T00:03:42;94089.94;;;15.33;100.00
8334;BME280;4204;43.004;23.052;2023-05-20T00:06:11;94085.03;;;15.11;100.00
8334;BME280;4204;43.004;23.052;2023-05-20T00:08:39;94088.69;;;14.83;100.00
8334;BME280;4204;43.004;23.052;2023-05-20T00:11:08;94086.63;;;14.68;100.00
8334;BME280;4204;43.004;23.052;2023-05-20T00:13:36;94080.56;;;14.46;100.00
8334;BME280;4204;43.004;23.052;2023-05-20T00:16:04;94075.88;;;14.43;100.00
8334;BME280;4204;43.004;23.052;2023-05-20T00:18:32;94072.41;;;14.22;100.00
8334;BME280;4204;43.004;23.052;2023-05-20T00:21:00;94075.91;;;14.02;100.00
8334;BME280;4204;43.004;23.052;2023-05-20T00:23:27;94075.22;;;14.05;100.00
8334;BME280;4204;43.004;23.052;2023-05-20T00:25:55;94077.38;;;14.12;100.00
8334;BME280;4204;43.004;23.052;2023-05-20T00:28:24;94079.59;;;14.30;100.00
8334;BME280;4204;43.004;23.052;2023-05-20T00:30:52;94076.34;;;14.25;100.00
8334;BME280;4204;43.004;23.052;2023-05-20T00:33:20;94075.81;;;14.64;100.00
8334;BME280;4204;43.004;23.052;2023-05-20T00:35:48;94061.66;;;14.76;100.00
8334;BME280;4204;43.004;23.052;2023-05-20T00:38:16;94071.50;;;14.84;100.00
8334;BME280;4204;43.004;23.052;2023-05-20T00:40:44;94067.97;;;14.47;100.00
8334;BME280;4204;43.004;23.052;2023-05-20T00:43:11;94069.25;;;14.08;100.00
8334;BME280;4204;43.004;23.052;2023-05-20T00:45:40;94072.03;;;13.91;100.00
8334;BME280;4204;43.004;23.052;2023-05-20T00:48:08;94074.53;;;13.75;100.00
8334;BME280;4204;43.004;23.052;2023-05-20T00:50:36;94071.88;;;13.75;100.00
8334;BME280;4204;43.004;23.052;2023-05-20T00:53:04;94060.09;;;13.68;100.00
8334;BME280;4204;43.004;23.052;2023-05-20T00:55:32;94073.69;;;13.63;100.00
8334;BME280;4204;43.004;23.052;2023-05-20T00:58:01;94075.50;;;13.71;100.00
8334;BME280;4204;43.004;23.052;2023-05-20T01:00:28;94069.88;;;13.64;100.00
8334;BME280;4204;43.004;23.052;2023-05-20T01:02:57;94067.28;;;13.55;100.00
8334;BME280;4204;43.004;23.052;2023-05-20T01:05:25;94063.53;;;13.27;100.00
8334;BME280;4204;43.004;23.052;2023-05-20T01:07:53;94065.03;;;13.37;100.00
8334;BME280;4204;43.004;23.052;2023-05-20T01:10:22;94058.94;;;13.57;100.00
8334;BME280;4204;43.004;23.052;2023-05-20T01:12:53;94053.72;;;13.40;100.00
8334;BME280;4204;43.004;23.052;2023-05-20T01:15:24;94056.44;;;13.52;100.00
8334;BME280;4204;43.004;23.052;2023-05-20T01:17:59;94059.19;;;13.64;100.00
8334;BME280;4204;43.004;23.052;2023-05-20T01:20:28;94043.44;;;13.50;100.00
8334;BME280;4204;43.004;23.052;2023-05-20T01:22:59;94046.72;;;13.27;100.00
8334;BME280;4204;43.004;23.052;2023-05-20T01:25:26;94038.81;;;13.10;100.00
8334;BME280;4204;43.004;23.052;2023-05-20T01:27:55;94037.13;;;13.26;100.00
8334;BME280;4204;43.004;23.052;2023-05-20T01:30:25;94038.47;;;13.11;100.00
8334;BME280;4204;43.004;23.052;2023-05-20T01:33:00;94041.03;;;13.08;100.00
8334;BME280;4204;43.004;23.052;2023-05-20T01:35:29;94043.13;;;12.85;100.00
8334;BME280;4204;43.004;23.052;2023-05-20T01:38:00;94048.38;;;13.11;100.00
8334;BME280;4204;43.004;23.052;2023-05-20T01:40:29;94046.47;;;13.40;100.00
8334;BME280;4204;43.004;23.052;2023-05-20T01:42:58;94050.94;;;13.57;100.00
8334;BME280;4204;43.004;23.052;2023-05-20T01:45:26;94041.78;;;13.58;100.00
8334;BME280;4204;43.004;23.052;2023-05-20T01:47:54;94040.19;;;13.45;100.00
8334;BME280;4204;43.004;23.052;2023-05-20T01:50:21;94038.97;;;13.34;100.00
8334;BME280;4204;43.004;23.052;2023-05-20T01:52:49;94033.31;;;13.06;100.00
8334;BME280;4204;43.004;23.052;2023-05-20T01:55:18;94032.69;;;13.00;100.00
8334;BME280;4204;43.004;23.052;2023-05-20T01:57:46;94027.47;;;12.75;100.00
8334;BME280;4204;43.004;23.052;2023-05-20T02:00:14;94039.28;;;12.65;100.00
8334;BME280;4204;43.004;23.052;2023-05-20T02:02:43;94026.38;;;12.76;100.00
8334;BME280;4204;43.004;23.052;2023-05-20T02:05:12;94022.00;;;13.00;100.00
8334;BME280;4204;43.004;23.052;2023-05-20T02:07:42;94021.56;;;12.98;100.00
8334;BME280;4204;43.004;23.052;2023-05-20T02:10:10;94021.09;;;12.96;100.00
8334;BME280;4204;43.004;23.052;2023-05-20T02:12:39;94021.84;;;13.06;100.00
8334;BME280;4204;43.004;23.052;2023-05-20T02:15:07;94023.19;;;12.82;100.00
8334;BME280;4204;43.004;23.052;2023-05-20T02:17:35;94015.84;;;12.71;100.00
8334;BME280;4204;43.004;23.052;2023-05-20T02:20:04;94015.41;;;12.69;100.00
8334;BME280;4204;43.004;23.052;2023-05-20T02:22:34;94017.38;;;12.51;100.00
8334;BME280;4204;43.004;23.052;2023-05-20T02:25:03;94019.03;;;12.18;100.00
8334;BME280;4204;43.004;23.052;2023-05-20T02:27:31;94010.09;;;12.14;100.00
8334;BME280;4204;43.004;23.052;2023-05-20T02:30:00;94018.09;;;12.14;100.00
8334;BME280;4204;43.004;23.052;2023-05-20T02:32:28;94006.66;;;12.05;100.00
8334;BME280;4204;43.004;23.052;2023-05-20T02:34:56;94007.91;;;11.99;100.00
8334;BME280;4204;43.004;23.052;2023-05-20T02:37:23;94005.22;;;12.16;100.00
8334;BME280;4204;43.004;23.052;2023-05-20T02:39:51;94003.47;;;12.29;100.00
8334;BME280;4204;43.004;23.052;2023-05-20T02:42:19;94011.44;;;12.37;100.00
8334;BME280;4204;43.004;23.052;2023-05-20T02:44:47;94005.56;;;12.52;100.00
8334;BME280;4204;43.004;23.052;2023-05-20T02:47:16;93998.13;;;12.66;100.00
8334;BME280;4204;43.004;23.052;2023-05-20T02:49:43;94006.13;;;12.66;100.00
8334;BME280;4204;43.004;23.052;2023-05-20T02:52:12;94009.47;;;12.63;100.00
8334;BME280;4204;43.004;23.052;2023-05-20T02:54:41;94009.78;;;12.62;100.00
8334;BME280;4204;43.004;23.052;2023-05-20T02:57:09;94015.28;;;12.57;100.00
8334;BME280;4204;43.004;23.052;2023-05-20T02:59:37;94019.75;;;12.36;100.00
8334;BME280;4204;43.004;23.052;2023-05-20T03:02:08;94023.03;;;12.41;100.00
8334;BME280;4204;43.004;23.052;2023-05-20T03:04:37;94030.25;;;12.49;100.00
8334;BME280;4204;43.004;23.052;2023-05-20T03:07:06;94034.47;;;12.42;100.00
8334;BME280;4204;43.004;23.052;2023-05-20T03:09:34;94036.69;;;12.31;100.00
8334;BME280;4204;43.004;23.052;2023-05-20T03:12:02;94036.06;;;12.34;100.00
8334;BME280;4204;43.004;23.052;2023-05-20T03:14:30;94041.25;;;12.39;100.00
8334;BME280;4204;43.004;23.052;2023-05-20T03:16:58;94041.66;;;12.50;100.00
8334;BME280;4204;43.004;23.052;2023-05-20T03:19:25;94037.09;;;12.59;100.00
8334;BME280;4204;43.004;23.052;2023-05-20T03:21:54;94044.09;;;12.80;100.00
8334;BME280;4204;43.004;23.052;2023-05-20T03:24:23;94052.72;;;12.77;100.00
8334;BME280;4204;43.004;23.052;2023-05-20T03:26:51;94046.00;;;12.71;100.00
8334;BME280;4204;43.004;23.052;2023-05-20T03:29:19;94052.66;;;12.48;100.00
8334;BME280;4204;43.004;23.052;2023-05-20T03:31:47;94046.41;;;12.36;100.00
8334;BME280;4204;43.004;23.052;2023-05-20T03:34:14;94042.56;;;12.16;100.00
8334;BME280;4204;43.004;23.052;2023-05-20T03:36:44;94048.63;;;12.25;100.00
8334;BME280;4204;43.004;23.052;2023-05-20T03:39:13;94053.56;;;12.06;100.00
8334;BME280;4204;43.004;23.052;2023-05-20T03:41:41;94051.81;;;11.93;100.00
8334;BME280;4204;43.004;23.052;2023-05-20T03:44:09;94043.97;;;12.05;100.00
8334;BME280;4204;43.004;23.052;2023-05-20T03:46:38;94043.34;;;12.08;100.00
8334;BME280;4204;43.004;23.052;2023-05-20T03:49:06;94053.38;;;12.11;100.00
8334;BME280;4204;43.004;23.052;2023-05-20T03:51:34;94044.44;;;11.98;100.00
8334;BME280;4204;43.004;23.052;2023-05-20T03:54:06;94038.97;;;12.12;100.00
8334;BME280;4204;43.004;23.052;2023-05-20T03:56:36;94042.53;;;12.25;100.00
8334;BME280;4204;43.004;23.052;2023-05-20T03:59:03;94041.16;;;12.18;100.00
8334;BME280;4204;43.004;23.052;2023-05-20T04:01:32;94048.81;;;12.20;100.00
8334;BME280;4204;43.004;23.052;2023-05-20T04:04:00;94047.44;;;12.05;100.00
8334;BME280;4204;43.004;23.052;2023-05-20T04:06:27;94063.44;;;11.88;100.00
8334;BME280;4204;43.004;23.052;2023-05-20T04:08:57;94052.44;;;11.90;100.00
8334;BME280;4204;43.004;23.052;2023-05-20T04:11:25;94063.56;;;12.00;100.00
8334;BME280;4204;43.004;23.052;2023-05-20T04:13:54;94066.56;;;12.07;100.00
8334;BME280;4204;43.004;23.052;2023-05-20T04:16:23;94064.38;;;12.01;100.00
8334;BME280;4204;43.004;23.052;2023-05-20T04:18:51;94066.09;;;12.05;100.00
8334;BME280;4204;43.004;23.052;2023-05-20T04:21:19;94046.31;;;12.15;100.00
8334;BME280;4204;43.004;23.052;2023-05-20T04:23:47;94061.03;;;12.21;100.00
8334;BME280;4204;43.004;23.052;2023-05-20T04:26:15;94061.19;;;12.33;100.00
8334;BME280;4204;43.004;23.052;2023-05-20T04:28:42;94064.28;;;12.44;100.00
8334;BME280;4204;43.004;23.052;2023-05-20T04:31:15;94062.66;;;12.68;100.00
8334;BME280;4204;43.004;23.052;2023-05-20T04:33:43;94064.81;;;12.75;100.00
8334;BME280;4204;43.004;23.052;2023-05-20T04:36:11;94063.72;;;12.84;100.00
8334;BME280;4204;43.004;23.052;2023-05-20T04:38:41;94065.81;;;12.99;100.00
8334;BME280;4204;43.004;23.052;2023-05-20T04:41:10;94069.88;;;13.14;100.00
8334;BME280;4204;43.004;23.052;2023-05-20T04:43:38;94072.97;;;13.25;100.00
8334;BME280;4204;43.004;23.052;2023-05-20T04:46:05;94072.09;;;13.41;100.00
8334;BME280;4204;43.004;23.052;2023-05-20T04:48:35;94074.47;;;13.63;100.00
8334;BME280;4204;43.004;23.052;2023-05-20T04:51:03;94062.28;;;13.74;100.00
8334;BME280;4204;43.004;23.052;2023-05-20T04:53:31;94068.00;;;13.85;100.00
8334;BME280;4204;43.004;23.052;2023-05-20T04:56:00;94065.22;;;14.02;100.00
8334;BME280;4204;43.004;23.052;2023-05-20T04:58:29;94071.97;;;14.20;100.00
8334;BME280;4204;43.004;23.052;2023-05-20T05:00:59;94066.06;;;14.47;100.00
8334;BME280;4204;43.004;23.052;2023-05-20T05:03:27;94076.38;;;14.70;100.00
8334;BME280;4204;43.004;23.052;2023-05-20T05:05:58;94071.50;;;14.84;100.00
8334;BME280;4204;43.004;23.052;2023-05-20T05:08:26;94076.56;;;14.97;100.00
8334;BME280;4204;43.004;23.052;2023-05-20T05:10:54;94077.09;;;15.15;100.00
8334;BME280;4204;43.004;23.052;2023-05-20T05:13:22;94078.91;;;15.35;100.00
8334;BME280;4204;43.004;23.052;2023-05-20T05:15:57;94076.47;;;15.54;100.00
8334;BME280;4204;43.004;23.052;2023-05-20T05:18:26;94077.56;;;15.65;100.00
8334;BME280;4204;43.004;23.052;2023-05-20T05:21:02;94076.31;;;15.87;100.00
8334;BME280;4204;43.004;23.052;2023-05-20T05:23:32;94071.66;;;15.99;100.00
8334;BME280;4204;43.004;23.052;2023-05-20T05:26:00;94078.84;;;16.07;100.00
8334;BME280;4204;43.004;23.052;2023-05-20T05:28:27;94082.44;;;16.27;100.00
8334;BME280;4204;43.004;23.052;2023-05-20T05:30:55;94076.25;;;16.39;100.00
8334;BME280;4204;43.004;23.052;2023-05-20T05:33:23;94079.13;;;16.46;100.00
8334;BME280;4204;43.004;23.052;2023-05-20T05:35:51;94078.84;;;16.63;100.00
8334;BME280;4204;43.004;23.052;2023-05-20T05:38:20;94075.66;;;16.73;100.00
8334;BME280;4204;43.004;23.052;2023-05-20T05:40:48;94073.59;;;16.97;100.00
8334;BME280;4204;43.004;23.052;2023-05-20T05:43:16;94084.53;;;17.05;100.00
8334;BME280;4204;43.004;23.052;2023-05-20T05:45:46;94083.25;;;17.14;100.00
8334;BME280;4204;43.004;23.052;2023-05-20T05:48:14;94080.31;;;17.19;100.00
8334;BME280;4204;43.004;23.052;2023-05-20T05:50:45;94076.13;;;17.37;100.00
8334;BME280;4204;43.004;23.052;2023-05-20T05:53:15;94071.09;;;17.51;100.00
8334;BME280;4204;43.004;23.052;2023-05-20T05:55:48;94082.97;;;17.66;100.00
8334;BME280;4204;43.004;23.052;2023-05-20T05:58:16;94077.59;;;17.66;100.00
8334;BME280;4204;43.004;23.052;2023-05-20T06:00:45;94082.91;;;17.82;100.00
8334;BME280;4204;43.004;23.052;2023-05-20T06:03:13;94076.28;;;17.95;100.00
8334;BME280;4204;43.004;23.052;2023-05-20T06:05:44;94084.81;;;18.16;100.00
8334;BME280;4204;43.004;23.052;2023-05-20T06:08:12;94077.59;;;18.20;100.00
8334;BME280;4204;43.004;23.052;2023-05-20T06:10:40;94074.06;;;18.35;100.00
8334;BME280;4204;43.004;23.052;2023-05-20T06:13:09;94075.66;;;18.55;100.00
8334;BME280;4204;43.004;23.052;2023-05-20T06:15:38;94072.72;;;18.64;100.00
8334;BME280;4204;43.004;23.052;2023-05-20T06:18:06;94060.38;;;18.63;100.00
8334;BME280;4204;43.004;23.052;2023-05-20T06:20:34;94074.19;;;18.80;100.00
8334;BME280;4204;43.004;23.052;2023-05-20T06:23:02;94081.31;;;18.92;100.00
8334;BME280;4204;43.004;23.052;2023-05-20T06:25:57;94078.28;;;18.93;100.00
8334;BME280;4204;43.004;23.052;2023-05-20T06:28:27;94082.00;;;19.08;100.00
8334;BME280;4204;43.004;23.052;2023-05-20T06:30:54;94078.88;;;19.06;100.00
8334;BME280;4204;43.004;23.052;2023-05-20T06:33:23;94078.78;;;19.21;100.00
8334;BME280;4204;43.004;23.052;2023-05-20T06:35:53;94073.06;;;19.26;100.00
8334;BME280;4204;43.004;23.052;2023-05-20T06:38:21;94073.34;;;19.41;100.00
8334;BME280;4204;43.004;23.052;2023-05-20T06:40:50;94067.34;;;19.51;100.00
8334;BME280;4204;43.004;23.052;2023-05-20T06:43:18;94071.69;;;19.59;100.00
8334;BME280;4204;43.004;23.052;2023-05-20T06:46:10;94066.22;;;19.78;100.00
8334;BME280;4204;43.004;23.052;2023-05-20T06:48:46;94048.81;;;19.75;100.00
8334;BME280;4204;43.004;23.052;2023-05-20T06:51:14;94066.47;;;19.99;100.00
8334;BME280;4204;43.004;23.052;2023-05-20T06:53:45;94061.56;;;20.04;100.00
8334;BME280;4204;43.004;23.052;2023-05-20T06:56:14;94062.28;;;20.01;100.00
8334;BME280;4204;43.004;23.052;2023-05-20T06:58:42;94053.22;;;20.16;100.00
8334;BME280;4204;43.004;23.052;2023-05-20T07:01:11;94056.09;;;20.01;100.00
8334;BME280;4204;43.004;23.052;2023-05-20T07:03:40;94054.00;;;20.17;100.00
8334;BME280;4204;43.004;23.052;2023-05-20T07:06:08;94070.84;;;20.33;100.00
8334;BME280;4204;43.004;23.052;2023-05-20T07:08:36;94056.75;;;20.50;100.00
8334;BME280;4204;43.004;23.052;2023-05-20T07:11:04;94065.63;;;20.51;100.00
8334;BME280;4204;43.004;23.052;2023-05-20T07:13:33;94052.94;;;20.55;100.00
8334;BME280;4204;43.004;23.052;2023-05-20T07:16:00;94060.50;;;20.75;100.00
8334;BME280;4204;43.004;23.052;2023-05-20T07:18:29;94058.66;;;20.83;100.00
8334;BME280;4204;43.004;23.052;2023-05-20T07:20:57;94062.09;;;20.80;100.00
8334;BME280;4204;43.004;23.052;2023-05-20T07:23:39;94055.16;;;20.82;100.00
8334;BME280;4204;43.004;23.052;2023-05-20T07:26:06;94049.13;;;20.96;100.00
8334;BME280;4204;43.004;23.052;2023-05-20T07:28:35;94047.72;;;21.06;100.00
8334;BME280;4204;43.004;23.052;2023-05-20T07:31:03;94033.81;;;21.11;100.00
8334;BME280;4204;43.004;23.052;2023-05-20T07:33:35;94037.19;;;21.01;100.00
8334;BME280;4204;43.004;23.052;2023-05-20T07:36:03;94037.72;;;21.13;100.00
8334;BME280;4204;43.004;23.052;2023-05-20T07:38:31;94041.63;;;21.19;100.00
8334;BME280;4204;43.004;23.052;2023-05-20T07:41:01;94047.81;;;21.16;100.00
8334;BME280;4204;43.004;23.052;2023-05-20T07:43:29;94040.94;;;21.26;100.00
8334;BME280;4204;43.004;23.052;2023-05-20T07:45:58;94034.78;;;21.29;100.00
8334;BME280;4204;43.004;23.052;2023-05-20T07:48:26;94029.41;;;21.36;100.00
8334;BME280;4204;43.004;23.052;2023-05-20T07:50:55;94038.03;;;21.52;100.00
8334;BME280;4204;43.004;23.052;2023-05-20T07:53:25;94043.03;;;21.50;100.00
8334;BME280;4204;43.004;23.052;2023-05-20T07:55:54;94022.66;;;21.66;100.00
8334;BME280;4204;43.004;23.052;2023-05-20T07:58:21;94030.34;;;21.54;100.00
8334;BME280;4204;43.004;23.052;2023-05-20T08:00:50;94034.28;;;21.67;100.00
8334;BME280;4204;43.004;23.052;2023-05-20T08:03:17;94041.63;;;21.66;100.00
8334;BME280;4204;43.004;23.052;2023-05-20T08:06:03;94031.63;;;21.74;100.00
8334;BME280;4204;43.004;23.052;2023-05-20T08:08:30;94033.16;;;21.75;100.00
8334;BME280;4204;43.004;23.052;2023-05-20T08:11:07;94038.97;;;21.73;100.00
8334;BME280;4204;43.004;23.052;2023-05-20T08:13:37;94029.66;;;21.67;100.00
8334;BME280;4204;43.004;23.052;2023-05-20T08:16:05;94034.69;;;21.69;100.00
8334;BME280;4204;43.004;23.052;2023-05-20T08:18:34;94036.56;;;21.58;100.00
8334;BME280;4204;43.004;23.052;2023-05-20T08:21:05;94030.38;;;21.61;100.00
8334;BME280;4204;43.004;23.052;2023-05-20T08:23:34;94028.53;;;21.72;100.00
8334;BME280;4204;43.004;23.052;2023-05-20T08:26:02;94024.22;;;21.67;100.00
8334;BME280;4204;43.004;23.052;2023-05-20T08:28:32;94028.22;;;21.84;100.00
8334;BME280;4204;43.004;23.052;2023-05-20T08:31:02;94025.59;;;21.95;100.00
8334;BME280;4204;43.004;23.052;2023-05-20T08:33:31;94034.09;;;21.93;100.00
8334;BME280;4204;43.004;23.052;2023-05-20T08:35:59;94022.56;;;22.10;100.00
8334;BME280;4204;43.004;23.052;2023-05-20T08:38:29;94024.19;;;22.25;100.00
8334;BME280;4204;43.004;23.052;2023-05-20T08:40:56;94023.28;;;22.04;100.00
8334;BME280;4204;43.004;23.052;2023-05-20T08:43:25;94020.59;;;22.04;100.00
8334;BME280;4204;43.004;23.052;2023-05-20T08:45:53;94017.53;;;22.09;100.00
8334;BME280;4204;43.004;23.052;2023-05-20T08:48:25;94017.19;;;22.21;100.00
8334;BME280;4204;43.004;23.052;2023-05-20T08:50:56;94022.63;;;22.21;100.00
8334;BME280;4204;43.004;23.052;2023-05-20T08:53:25;94020.72;;;22.28;100.00
8334;BME280;4204;43.004;23.052;2023-05-20T08:55:56;94029.50;;;22.08;100.00
8334;BME280;4204;43.004;23.052;2023-05-20T08:58:28;94020.97;;;22.02;100.00
8334;BME280;4204;43.004;23.052;2023-05-20T09:00:56;94034.75;;;21.80;100.00
8334;BME280;4204;43.004;23.052;2023-05-20T09:03:25;94030.84;;;21.77;100.00
8334;BME280;4204;43.004;23.052;2023-05-20T09:06:01;94023.47;;;21.70;100.00
8334;BME280;4204;43.004;23.052;2023-05-20T09:08:29;94015.69;;;21.62;100.00
8334;BME280;4204;43.004;23.052;2023-05-20T09:10:59;94009.50;;;21.61;100.00
8334;BME280;4204;43.004;23.052;2023-05-20T09:13:29;94030.75;;;21.59;100.00
8334;BME280;4204;43.004;23.052;2023-05-20T09:15:58;94015.94;;;21.43;100.00
8334;BME280;4204;43.004;23.052;2023-05-20T09:18:26;94013.34;;;21.60;100.00
8334;BME280;4204;43.004;23.052;2023-05-20T09:20:54;94003.28;;;21.57;100.00
8334;BME280;4204;43.004;23.052;2023-05-20T09:23:22;94004.19;;;21.79;100.00
8334;BME280;4204;43.004;23.052;2023-05-20T09:25:52;94011.44;;;21.64;100.00
8334;BME280;4204;43.004;23.052;2023-05-20T09:28:22;94009.81;;;21.53;100.00
8334;BME280;4204;43.004;23.052;2023-05-20T09:30:55;94011.78;;;21.56;100.00
8334;BME280;4204;43.004;23.052;2023-05-20T09:33:26;94011.03;;;21.59;100.00
8334;BME280;4204;43.004;23.052;2023-05-20T09:36:01;94015.66;;;21.58;100.00
8334;BME280;4204;43.004;23.052;2023-05-20T09:38:30;94017.53;;;21.47;100.00
8334;BME280;4204;43.004;23.052;2023-05-20T09:41:05;94004.78;;;21.51;100.00
8334;BME280;4204;43.004;23.052;2023-05-20T09:43:35;94003.03;;;21.77;100.00
8334;BME280;4204;43.004;23.052;2023-05-20T09:46:03;94009.34;;;22.02;100.00
8334;BME280;4204;43.004;23.052;2023-05-20T09:48:32;94005.94;;;22.15;100.00
8334;BME280;4204;43.004;23.052;2023-05-20T09:51:03;94000.50;;;22.08;100.00
8334;BME280;4204;43.004;23.052;2023-05-20T09:53:32;94000.88;;;22.03;100.00
8334;BME280;4204;43.004;23.052;2023-05-20T09:56:00;93993.09;;;21.98;100.00
8334;BME280;4204;43.004;23.052;2023-05-20T09:58:28;94005.91;;;22.01;100.00
8334;BME280;4204;43.004;23.052;2023-05-20T10:00:57;93991.28;;;22.20;100.00
8334;BME280;4204;43.004;23.052;2023-05-20T10:03:25;93986.53;;;22.03;100.00
8334;BME280;4204;43.004;23.052;2023-05-20T10:06:05;93974.97;;;22.16;100.00
8334;BME280;4204;43.004;23.052;2023-05-20T10:08:51;93976.59;;;22.31;100.00
8334;BME280;4204;43.004;23.052;2023-05-20T10:11:29;93981.63;;;22.29;100.00
8334;BME280;4204;43.004;23.052;2023-05-20T10:14:15;93980.88;;;22.39;100.00
8334;BME280;4204;43.004;23.052;2023-05-20T10:16:55;93983.88;;;22.17;100.00
8334;BME280;4204;43.004;23.052;2023-05-20T10:19:27;93971.88;;;22.14;100.00
8334;BME280;4204;43.004;23.052;2023-05-20T10:21:57;93968.84;;;22.30;100.00
8334;BME280;4204;43.004;23.052;2023-05-20T10:24:29;93955.72;;;22.49;100.00
8334;BME280;4204;43.004;23.052;2023-05-20T10:26:58;93973.13;;;22.34;100.00
8334;BME280;4204;43.004;23.052;2023-05-20T10:29:28;93976.97;;;22.30;100.00
8334;BME280;4204;43.004;23.052;2023-05-20T10:31:58;93963.06;;;22.38;100.00
8334;BME280;4204;43.004;23.052;2023-05-20T10:34:25;93970.44;;;22.48;100.00
8334;BME280;4204;43.004;23.052;2023-05-20T10:36:57;93965.47;;;22.68;100.00
8334;BME280;4204;43.004;23.052;2023-05-20T10:39:26;93974.78;;;22.74;100.00
8334;BME280;4204;43.004;23.052;2023-05-20T10:42:05;93950.03;;;22.90;100.00
8334;BME280;4204;43.004;23.052;2023-05-20T10:44:40;93953.91;;;23.03;100.00
8334;BME280;4204;43.004;23.052;2023-05-20T10:47:10;93939.16;;;22.90;100.00
8334;BME280;4204;43.004;23.052;2023-05-20T10:49:43;93941.47;;;22.95;100.00
8334;BME280;4204;43.004;23.052;2023-05-20T10:52:12;93939.94;;;23.04;100.00
8334;BME280;4204;43.004;23.052;2023-05-20T10:54:42;93931.00;;;23.28;100.00
8334;BME280;4204;43.004;23.052;2023-05-20T10:57:11;93929.47;;;23.17;100.00
8334;BME280;4204;43.004;23.052;2023-05-20T10:59:40;93932.16;;;23.24;100.00
8334;BME280;4204;43.004;23.052;2023-05-20T11:02:11;93946.16;;;23.08;100.00
8334;BME280;4204;43.004;23.052;2023-05-20T11:04:41;93941.88;;;23.04;100.00
8334;BME280;4204;43.004;23.052;2023-05-20T11:07:09;93937.59;;;22.78;100.00
8334;BME280;4204;43.004;23.052;2023-05-20T11:09:38;93948.03;;;22.59;100.00
8334;BME280;4204;43.004;23.052;2023-05-20T11:12:06;93947.13;;;22.23;100.00
8334;BME280;4204;43.004;23.052;2023-05-20T11:14:34;93960.56;;;21.91;100.00
8334;BME280;4204;43.004;23.052;2023-05-20T11:17:02;93948.09;;;21.76;100.00
8334;BME280;4204;43.004;23.052;2023-05-20T11:19:31;93949.69;;;21.84;100.00
8334;BME280;4204;43.004;23.052;2023-05-20T11:21:59;93937.03;;;22.09;100.00
8334;BME280;4204;43.004;23.052;2023-05-20T11:24:27;93927.44;;;22.40;100.00
8334;BME280;4204;43.004;23.052;2023-05-20T11:26:55;93922.09;;;22.68;100.00
8334;BME280;4204;43.004;23.052;2023-05-20T11:29:25;93930.94;;;22.40;100.00
8334;BME280;4204;43.004;23.052;2023-05-20T11:31:54;93923.16;;;22.35;100.00
8334;BME280;4204;43.004;23.052;2023-05-20T11:34:22;93924.72;;;22.26;100.00
8334;BME280;4204;43.004;23.052;2023-05-20T11:36:56;93918.38;;;21.90;100.00
8334;BME280;4204;43.004;23.052;2023-05-20T11:39:24;93917.00;;;21.45;100.00
8334;BME280;4204;43.004;23.052;2023-05-20T11:41:53;93921.34;;;21.71;100.00
8334;BME280;4204;43.004;23.052;2023-05-20T11:44:21;93904.06;;;21.86;100.00
8334;BME280;4204;43.004;23.052;2023-05-20T11:46:48;93902.59;;;22.10;100.00
8334;BME280;4204;43.004;23.052;2023-05-20T11:49:16;93895.28;;;22.35;100.00
8334;BME280;4204;43.004;23.052;2023-05-20T11:51:44;93901.50;;;22.39;100.00
8334;BME280;4204;43.004;23.052;2023-05-20T11:54:13;93898.41;;;22.47;100.00
8334;BME280;4204;43.004;23.052;2023-05-20T11:56:43;93912.31;;;22.39;100.00
8334;BME280;4204;43.004;23.052;2023-05-20T11:59:10;93908.03;;;22.20;100.00
8334;BME280;4204;43.004;23.052;2023-05-20T12:01:39;93911.13;;;22.22;100.00
8334;BME280;4204;43.004;23.052;2023-05-20T12:04:09;93916.94;;;22.14;100.00
8334;BME280;4204;43.004;23.052;2023-05-20T12:06:38;93905.31;;;22.10;100.00
8334;BME280;4204;43.004;23.052;2023-05-20T12:09:06;93897.94;;;22.10;100.00
8334;BME280;4204;43.004;23.052;2023-05-20T12:11:36;93902.56;;;21.99;100.00
8334;BME280;4204;43.004;23.052;2023-05-20T12:14:06;93895.97;;;21.93;100.00
8334;BME280;4204;43.004;23.052;2023-05-20T12:16:34;93905.84;;;21.61;100.00
8334;BME280;4204;43.004;23.052;2023-05-20T12:19:03;93867.75;;;21.22;100.00
8334;BME280;4204;43.004;23.052;2023-05-20T12:21:31;93885.53;;;21.23;100.00
8334;BME280;4204;43.004;23.052;2023-05-20T12:23:58;93888.22;;;21.23;100.00
8334;BME280;4204;43.004;23.052;2023-05-20T12:26:27;93877.53;;;21.48;100.00
8334;BME280;4204;43.004;23.052;2023-05-20T12:28:57;93866.41;;;21.67;100.00
8334;BME280;4204;43.004;23.052;2023-05-20T12:31:25;93851.81;;;21.86;100.00
8334;BME280;4204;43.004;23.052;2023-05-20T12:33:52;93866.59;;;22.16;100.00
8334;BME280;4204;43.004;23.052;2023-05-20T12:36:20;93861.97;;;22.17;100.00
8334;BME280;4204;43.004;23.052;2023-05-20T12:38:48;93860.44;;;22.37;100.00
8334;BME280;4204;43.004;23.052;2023-05-20T12:41:15;93874.41;;;22.46;100.00
8334;BME280;4204;43.004;23.052;2023-05-20T12:43:43;93875.56;;;22.41;100.00
8334;BME280;4204;43.004;23.052;2023-05-20T12:46:12;93870.53;;;22.58;100.00
8334;BME280;4204;43.004;23.052;2023-05-20T12:48:40;93866.31;;;22.60;100.00
8334;BME280;4204;43.004;23.052;2023-05-20T12:51:08;93876.00;;;22.72;100.00
8334;BME280;4204;43.004;23.052;2023-05-20T12:53:35;93875.97;;;22.47;100.00
8334;BME280;4204;43.004;23.052;2023-05-20T12:56:04;93872.09;;;22.44;100.00
8334;BME280;4204;43.004;23.052;2023-05-20T12:58:32;93865.09;;;22.33;100.00
8334;BME280;4204;43.004;23.052;2023-05-20T13:00:59;93856.56;;;22.31;100.00
8334;BME280;4204;43.004;23.052;2023-05-20T13:03:28;93854.22;;;22.22;100.00
8334;BME280;4204;43.004;23.052;2023-05-20T13:05:56;93856.94;;;22.22;100.00
8334;BME280;4204;43.004;23.052;2023-05-20T13:08:24;93851.56;;;22.40;100.00
8334;BME280;4204;43.004;23.052;2023-05-20T13:10:52;93853.88;;;22.55;100.00